sensor_id;sensor_type;location;lat;lon;timestamp;P1;durP1;ratioP1;P2;durP2;ratioP2
22030;SDS011;11179;52.106;21.024;2022-11-06T00:00:14;64.50;;;25.50;;
22030;SDS011;11179;52.106;21.024;2022-11-06T00:02:41;49.33;;;19.10;;
22030;SDS011;11179;52.106;21.024;2022-11-06T00:05:06;36.57;;;15.57;;
22030;SDS011;11179;52.106;21.024;2022-11-06T00:07:51;30.47;;;13.50;;
22030;SDS011;11179;52.106;21.024;2022-11-06T00:10:16;47.97;;;18.07;;
22030;SDS011;11179;52.106;21.024;2022-11-06T00:12:42;39.63;;;17.73;;
22030;SDS011;11179;52.106;21.024;2022-11-06T00:15:08;48.30;;;19.23;;
22030;SDS011;11179;52.106;21.024;2022-11-06T00:17:34;39.07;;;15.20;;
22030;SDS011;11179;52.106;21.024;2022-11-06T00:19:59;52.33;;;18.40;;
22030;SDS011;11179;52.106;21.024;2022-11-06T00:22:25;45.70;;;16.53;;
22030;SDS011;11179;52.106;21.024;2022-11-06T00:24:50;33.80;;;15.17;;
22030;SDS011;11179;52.106;21.024;2022-11-06T00:27:15;49.20;;;21.23;;
22030;SDS011;11179;52.106;21.024;2022-11-06T00:29:41;42.87;;;15.80;;
22030;SDS011;11179;52.106;21.024;2022-11-06T00:32:07;30.07;;;12.97;;
22030;SDS011;11179;52.106;21.024;2022-11-06T00:34:32;28.73;;;12.77;;
22030;SDS011;11179;52.106;21.024;2022-11-06T00:36:57;35.40;;;13.47;;
22030;SDS011;11179;52.106;21.024;2022-11-06T00:39:23;29.50;;;11.70;;
22030;SDS011;11179;52.106;21.024;2022-11-06T00:41:48;26.83;;;12.97;;
22030;SDS011;11179;52.106;21.024;2022-11-06T00:44:14;27.77;;;12.43;;
22030;SDS011;11179;52.106;21.024;2022-11-06T00:46:39;39.50;;;17.13;;
22030;SDS011;11179;52.106;21.024;2022-11-06T00:49:04;35.30;;;14.83;;
22030;SDS011;11179;52.106;21.024;2022-11-06T00:51:34;30.53;;;15.20;;
22030;SDS011;11179;52.106;21.024;2022-11-06T00:54:01;41.53;;;17.33;;
22030;SDS011;11179;52.106;21.024;2022-11-06T00:56:28;34.10;;;14.50;;
22030;SDS011;11179;52.106;21.024;2022-11-06T00:58:54;37.37;;;16.60;;
22030;SDS011;11179;52.106;21.024;2022-11-06T01:01:24;51.13;;;20.30;;
22030;SDS011;11179;52.106;21.024;2022-11-06T01:03:55;37.47;;;15.00;;
22030;SDS011;11179;52.106;21.024;2022-11-06T01:06:29;47.63;;;20.47;;
22030;SDS011;11179;52.106;21.024;2022-11-06T01:08:58;37.23;;;16.63;;
22030;SDS011;11179;52.106;21.024;2022-11-06T01:11:28;32.70;;;14.47;;
22030;SDS011;11179;52.106;21.024;2022-11-06T01:13:59;45.17;;;20.13;;
22030;SDS011;11179;52.106;21.024;2022-11-06T01:16:26;29.13;;;13.00;;
22030;SDS011;11179;52.106;21.024;2022-11-06T01:18:53;31.60;;;14.50;;
22030;SDS011;11179;52.106;21.024;2022-11-06T01:21:26;29.23;;;13.10;;
22030;SDS011;11179;52.106;21.024;2022-11-06T01:23:56;28.80;;;12.90;;
22030;SDS011;11179;52.106;21.024;2022-11-06T01:26:23;41.57;;;15.63;;
22030;SDS011;11179;52.106;21.024;2022-11-06T01:28:49;39.03;;;14.17;;
22030;SDS011;11179;52.106;21.024;2022-11-06T01:31:16;38.47;;;14.67;;
22030;SDS011;11179;52.106;21.024;2022-11-06T01:33:44;28.43;;;12.53;;
22030;SDS011;11179;52.106;21.024;2022-11-06T01:36:10;27.83;;;14.57;;
22030;SDS011;11179;52.106;21.024;2022-11-06T01:38:41;35.17;;;12.50;;
22030;SDS011;11179;52.106;21.024;2022-11-06T01:41:08;36.73;;;15.67;;
22030;SDS011;11179;52.106;21.024;2022-11-06T01:46:08;34.00;;;14.87;;
22030;SDS011;11179;52.106;21.024;2022-11-06T01:48:33;37.17;;;15.03;;
22030;SDS011;11179;52.106;21.024;2022-11-06T01:51:00;27.10;;;13.27;;
22030;SDS011;11179;52.106;21.024;2022-11-06T01:53:26;52.97;;;21.20;;
22030;SDS011;11179;52.106;21.024;2022-11-06T01:55:53;50.00;;;18.23;;
22030;SDS011;11179;52.106;21.024;2022-11-06T01:58:22;38.90;;;16.23;;
22030;SDS011;11179;52.106;21.024;2022-11-06T02:00:50;53.20;;;22.63;;
22030;SDS011;11179;52.106;21.024;2022-11-06T02:03:16;38.10;;;16.00;;
22030;SDS011;11179;52.106;21.024;2022-11-06T02:05:42;43.83;;;15.93;;
22030;SDS011;11179;52.106;21.024;2022-11-06T02:08:12;39.27;;;16.00;;
22030;SDS011;11179;52.106;21.024;2022-11-06T02:10:40;39.63;;;15.97;;
22030;SDS011;11179;52.106;21.024;2022-11-06T02:15:49;43.87;;;18.80;;
22030;SDS011;11179;52.106;21.024;2022-11-06T02:18:28;40.80;;;17.17;;
22030;SDS011;11179;52.106;21.024;2022-11-06T02:21:19;35.80;;;14.70;;
22030;SDS011;11179;52.106;21.024;2022-11-06T02:24:07;37.30;;;15.93;;
22030;SDS011;11179;52.106;21.024;2022-11-06T02:29:24;47.73;;;16.23;;
22030;SDS011;11179;52.106;21.024;2022-11-06T02:31:56;43.90;;;18.17;;
22030;SDS011;11179;52.106;21.024;2022-11-06T02:34:25;42.63;;;17.37;;
22030;SDS011;11179;52.106;21.024;2022-11-06T02:37:03;35.23;;;16.97;;
22030;SDS011;11179;52.106;21.024;2022-11-06T02:39:39;41.70;;;18.63;;
22030;SDS011;11179;52.106;21.024;2022-11-06T02:42:08;42.83;;;16.33;;
22030;SDS011;11179;52.106;21.024;2022-11-06T02:44:36;50.47;;;20.63;;
22030;SDS011;11179;52.106;21.024;2022-11-06T02:47:05;45.03;;;20.20;;
22030;SDS011;11179;52.106;21.024;2022-11-06T02:49:40;45.87;;;19.30;;
22030;SDS011;11179;52.106;21.024;2022-11-06T02:52:09;50.33;;;22.50;;
22030;SDS011;11179;52.106;21.024;2022-11-06T02:54:40;39.83;;;17.50;;
22030;SDS011;11179;52.106;21.024;2022-11-06T02:57:10;43.30;;;18.37;;
22030;SDS011;11179;52.106;21.024;2022-11-06T03:02:30;43.57;;;18.10;;
22030;SDS011;11179;52.106;21.024;2022-11-06T03:05:04;45.27;;;20.17;;
22030;SDS011;11179;52.106;21.024;2022-11-06T03:10:07;50.93;;;19.70;;
22030;SDS011;11179;52.106;21.024;2022-11-06T03:21:41;44.60;;;19.23;;
22030;SDS011;11179;52.106;21.024;2022-11-06T03:23:57;61.00;;;19.73;;
22030;SDS011;11179;52.106;21.024;2022-11-06T03:26:32;43.53;;;18.93;;
22030;SDS011;11179;52.106;21.024;2022-11-06T03:29:11;41.73;;;18.70;;
22030;SDS011;11179;52.106;21.024;2022-11-06T03:31:48;46.17;;;18.60;;
22030;SDS011;11179;52.106;21.024;2022-11-06T03:34:16;43.27;;;18.93;;
22030;SDS011;11179;52.106;21.024;2022-11-06T03:36:56;50.50;;;20.50;;
22030;SDS011;11179;52.106;21.024;2022-11-06T03:39:27;44.40;;;18.93;;
22030;SDS011;11179;52.106;21.024;2022-11-06T03:42:01;55.93;;;18.53;;
22030;SDS011;11179;52.106;21.024;2022-11-06T03:44:31;41.57;;;17.20;;
22030;SDS011;11179;52.106;21.024;2022-11-06T03:47:10;44.10;;;17.20;;
22030;SDS011;11179;52.106;21.024;2022-11-06T03:49:48;49.17;;;18.23;;
22030;SDS011;11179;52.106;21.024;2022-11-06T03:52:30;43.97;;;18.20;;
22030;SDS011;11179;52.106;21.024;2022-11-06T03:55:00;39.27;;;17.47;;
22030;SDS011;11179;52.106;21.024;2022-11-06T03:57:32;49.20;;;19.20;;
22030;SDS011;11179;52.106;21.024;2022-11-06T04:00:04;44.43;;;18.07;;
22030;SDS011;11179;52.106;21.024;2022-11-06T04:02:30;45.50;;;18.70;;
22030;SDS011;11179;52.106;21.024;2022-11-06T04:04:59;44.20;;;16.10;;
22030;SDS011;11179;52.106;21.024;2022-11-06T04:07:32;43.23;;;16.87;;
22030;SDS011;11179;52.106;21.024;2022-11-06T04:10:01;45.20;;;17.43;;
22030;SDS011;11179;52.106;21.024;2022-11-06T04:12:48;56.83;;;18.73;;
22030;SDS011;11179;52.106;21.024;2022-11-06T04:15:37;42.90;;;17.70;;
22030;SDS011;11179;52.106;21.024;2022-11-06T04:18:11;42.23;;;17.53;;
22030;SDS011;11179;52.106;21.024;2022-11-06T04:20:39;44.07;;;18.03;;
22030;SDS011;11179;52.106;21.024;2022-11-06T04:26:41;42.70;;;18.73;;
22030;SDS011;11179;52.106;21.024;2022-11-06T04:31:59;57.60;;;21.00;;
22030;SDS011;11179;52.106;21.024;2022-11-06T04:42:49;42.43;;;18.37;;
22030;SDS011;11179;52.106;21.024;2022-11-06T04:45:27;59.67;;;20.10;;
22030;SDS011;11179;52.106;21.024;2022-11-06T04:47:56;51.63;;;19.43;;
22030;SDS011;11179;52.106;21.024;2022-11-06T04:50:23;57.70;;;22.53;;
22030;SDS011;11179;52.106;21.024;2022-11-06T04:52:52;43.60;;;17.97;;
22030;SDS011;11179;52.106;21.024;2022-11-06T04:55:19;58.10;;;22.70;;
22030;SDS011;11179;52.106;21.024;2022-11-06T04:57:46;54.17;;;19.20;;
22030;SDS011;11179;52.106;21.024;2022-11-06T05:00:12;81.93;;;24.00;;
22030;SDS011;11179;52.106;21.024;2022-11-06T05:02:38;51.80;;;20.80;;
22030;SDS011;11179;52.106;21.024;2022-11-06T05:05:04;48.53;;;20.63;;
22030;SDS011;11179;52.106;21.024;2022-11-06T05:07:29;63.90;;;24.03;;
22030;SDS011;11179;52.106;21.024;2022-11-06T05:09:55;53.57;;;21.57;;
22030;SDS011;11179;52.106;21.024;2022-11-06T05:12:20;55.43;;;19.20;;
22030;SDS011;11179;52.106;21.024;2022-11-06T05:14:45;44.77;;;15.87;;
22030;SDS011;11179;52.106;21.024;2022-11-06T05:17:11;57.00;;;18.70;;
22030;SDS011;11179;52.106;21.024;2022-11-06T05:19:36;67.57;;;17.47;;
22030;SDS011;11179;52.106;21.024;2022-11-06T05:22:01;49.30;;;17.60;;
22030;SDS011;11179;52.106;21.024;2022-11-06T05:24:46;56.97;;;20.30;;
22030;SDS011;11179;52.106;21.024;2022-11-06T05:27:11;88.63;;;19.90;;
22030;SDS011;11179;52.106;21.024;2022-11-06T05:29:37;52.07;;;21.07;;
22030;SDS011;11179;52.106;21.024;2022-11-06T05:32:02;38.50;;;14.67;;
22030;SDS011;11179;52.106;21.024;2022-11-06T05:34:28;37.87;;;14.80;;
22030;SDS011;11179;52.106;21.024;2022-11-06T05:36:53;61.50;;;18.67;;
22030;SDS011;11179;52.106;21.024;2022-11-06T05:39:18;64.30;;;19.80;;
22030;SDS011;11179;52.106;21.024;2022-11-06T05:41:44;49.43;;;18.27;;
22030;SDS011;11179;52.106;21.024;2022-11-06T05:44:09;49.23;;;16.40;;
22030;SDS011;11179;52.106;21.024;2022-11-06T05:46:34;39.93;;;13.70;;
22030;SDS011;11179;52.106;21.024;2022-11-06T05:49:00;69.93;;;16.20;;
22030;SDS011;11179;52.106;21.024;2022-11-06T05:51:25;56.13;;;15.20;;
22030;SDS011;11179;52.106;21.024;2022-11-06T05:53:50;43.47;;;13.47;;
22030;SDS011;11179;52.106;21.024;2022-11-06T05:56:16;45.13;;;14.67;;
22030;SDS011;11179;52.106;21.024;2022-11-06T05:58:41;36.03;;;14.93;;
22030;SDS011;11179;52.106;21.024;2022-11-06T06:01:06;52.47;;;14.73;;
22030;SDS011;11179;52.106;21.024;2022-11-06T06:03:33;59.00;;;16.63;;
22030;SDS011;11179;52.106;21.024;2022-11-06T06:05:58;52.97;;;14.37;;
22030;SDS011;11179;52.106;21.024;2022-11-06T06:08:24;37.13;;;13.60;;
22030;SDS011;11179;52.106;21.024;2022-11-06T06:10:49;46.70;;;13.20;;
22030;SDS011;11179;52.106;21.024;2022-11-06T06:13:14;28.40;;;12.70;;
22030;SDS011;11179;52.106;21.024;2022-11-06T06:15:40;44.97;;;14.83;;
22030;SDS011;11179;52.106;21.024;2022-11-06T06:18:06;43.63;;;13.13;;
22030;SDS011;11179;52.106;21.024;2022-11-06T06:20:33;50.57;;;16.20;;
22030;SDS011;11179;52.106;21.024;2022-11-06T06:23:00;28.17;;;13.50;;
22030;SDS011;11179;52.106;21.024;2022-11-06T06:25:25;45.87;;;14.80;;
22030;SDS011;11179;52.106;21.024;2022-11-06T06:27:52;32.03;;;13.20;;
22030;SDS011;11179;52.106;21.024;2022-11-06T06:30:17;29.67;;;11.97;;
22030;SDS011;11179;52.106;21.024;2022-11-06T06:32:43;39.07;;;13.73;;
22030;SDS011;11179;52.106;21.024;2022-11-06T06:35:08;49.50;;;13.67;;
22030;SDS011;11179;52.106;21.024;2022-11-06T06:37:34;39.83;;;13.83;;
22030;SDS011;11179;52.106;21.024;2022-11-06T06:39:59;43.53;;;13.47;;
22030;SDS011;11179;52.106;21.024;2022-11-06T06:42:26;33.50;;;12.63;;
22030;SDS011;11179;52.106;21.024;2022-11-06T06:44:52;45.40;;;12.83;;
22030;SDS011;11179;52.106;21.024;2022-11-06T06:47:17;34.60;;;13.83;;
22030;SDS011;11179;52.106;21.024;2022-11-06T06:49:43;46.90;;;14.80;;
22030;SDS011;11179;52.106;21.024;2022-11-06T06:52:09;26.03;;;12.70;;
22030;SDS011;11179;52.106;21.024;2022-11-06T06:54:34;32.73;;;12.50;;
22030;SDS011;11179;52.106;21.024;2022-11-06T06:57:00;33.13;;;13.30;;
22030;SDS011;11179;52.106;21.024;2022-11-06T06:59:26;40.40;;;12.60;;
22030;SDS011;11179;52.106;21.024;2022-11-06T07:01:52;42.27;;;12.60;;
22030;SDS011;11179;52.106;21.024;2022-11-06T07:04:18;28.80;;;11.73;;
22030;SDS011;11179;52.106;21.024;2022-11-06T07:06:43;49.33;;;10.77;;
22030;SDS011;11179;52.106;21.024;2022-11-06T07:09:08;35.83;;;11.77;;
22030;SDS011;11179;52.106;21.024;2022-11-06T07:11:34;39.57;;;11.30;;
22030;SDS011;11179;52.106;21.024;2022-11-06T07:13:59;48.67;;;10.70;;
22030;SDS011;11179;52.106;21.024;2022-11-06T07:16:25;46.23;;;12.70;;
22030;SDS011;11179;52.106;21.024;2022-11-06T07:18:51;54.10;;;12.60;;
22030;SDS011;11179;52.106;21.024;2022-11-06T07:21:17;55.23;;;13.60;;
22030;SDS011;11179;52.106;21.024;2022-11-06T07:23:42;38.00;;;11.27;;
22030;SDS011;11179;52.106;21.024;2022-11-06T07:26:08;46.17;;;12.43;;
22030;SDS011;11179;52.106;21.024;2022-11-06T07:28:33;55.17;;;13.27;;
22030;SDS011;11179;52.106;21.024;2022-11-06T07:31:00;89.03;;;13.10;;
22030;SDS011;11179;52.106;21.024;2022-11-06T07:33:27;43.63;;;9.70;;
22030;SDS011;11179;52.106;21.024;2022-11-06T07:35:53;25.00;;;9.90;;
22030;SDS011;11179;52.106;21.024;2022-11-06T07:38:18;49.20;;;10.77;;
22030;SDS011;11179;52.106;21.024;2022-11-06T07:40:44;46.40;;;10.27;;
22030;SDS011;11179;52.106;21.024;2022-11-06T07:43:09;23.50;;;9.57;;
22030;SDS011;11179;52.106;21.024;2022-11-06T07:45:36;55.20;;;10.90;;
22030;SDS011;11179;52.106;21.024;2022-11-06T07:48:02;56.70;;;11.07;;
22030;SDS011;11179;52.106;21.024;2022-11-06T07:50:28;52.20;;;12.40;;
22030;SDS011;11179;52.106;21.024;2022-11-06T07:52:55;20.17;;;9.83;;
22030;SDS011;11179;52.106;21.024;2022-11-06T07:55:20;26.17;;;10.03;;
22030;SDS011;11179;52.106;21.024;2022-11-06T07:57:45;47.67;;;11.63;;
22030;SDS011;11179;52.106;21.024;2022-11-06T08:00:11;36.20;;;10.30;;
22030;SDS011;11179;52.106;21.024;2022-11-06T08:02:37;44.63;;;12.07;;
22030;SDS011;11179;52.106;21.024;2022-11-06T08:05:03;44.90;;;11.00;;
22030;SDS011;11179;52.106;21.024;2022-11-06T08:07:29;42.03;;;10.43;;
22030;SDS011;11179;52.106;21.024;2022-11-06T08:09:54;45.83;;;10.50;;
22030;SDS011;11179;52.106;21.024;2022-11-06T08:12:19;21.00;;;10.70;;
22030;SDS011;11179;52.106;21.024;2022-11-06T08:14:45;48.17;;;10.70;;
22030;SDS011;11179;52.106;21.024;2022-11-06T08:17:10;25.43;;;11.50;;
22030;SDS011;11179;52.106;21.024;2022-11-06T08:19:35;30.20;;;10.10;;
22030;SDS011;11179;52.106;21.024;2022-11-06T08:22:01;25.73;;;10.80;;
22030;SDS011;11179;52.106;21.024;2022-11-06T08:24:27;23.90;;;10.03;;
22030;SDS011;11179;52.106;21.024;2022-11-06T08:26:56;32.00;;;10.47;;
22030;SDS011;11179;52.106;21.024;2022-11-06T08:29:22;25.53;;;9.63;;
22030;SDS011;11179;52.106;21.024;2022-11-06T08:31:47;22.30;;;11.70;;
22030;SDS011;11179;52.106;21.024;2022-11-06T08:34:12;21.53;;;9.90;;
22030;SDS011;11179;52.106;21.024;2022-11-06T08:36:39;30.50;;;9.40;;
22030;SDS011;11179;52.106;21.024;2022-11-06T08:39:09;24.03;;;11.20;;
22030;SDS011;11179;52.106;21.024;2022-11-06T08:41:34;26.67;;;10.77;;
22030;SDS011;11179;52.106;21.024;2022-11-06T08:43:59;27.97;;;11.33;;
22030;SDS011;11179;52.106;21.024;2022-11-06T08:46:25;28.07;;;10.60;;
22030;SDS011;11179;52.106;21.024;2022-11-06T08:48:50;21.70;;;10.70;;
22030;SDS011;11179;52.106;21.024;2022-11-06T08:51:15;28.30;;;9.80;;
22030;SDS011;11179;52.106;21.024;2022-11-06T08:53:41;23.20;;;10.33;;
22030;SDS011;11179;52.106;21.024;2022-11-06T08:56:06;22.93;;;11.57;;
22030;SDS011;11179;52.106;21.024;2022-11-06T08:58:32;18.30;;;9.73;;
22030;SDS011;11179;52.106;21.024;2022-11-06T09:00:57;21.80;;;10.27;;
22030;SDS011;11179;52.106;21.024;2022-11-06T09:03:22;16.77;;;9.23;;
22030;SDS011;11179;52.106;21.024;2022-11-06T09:05:48;22.73;;;9.30;;
22030;SDS011;11179;52.106;21.024;2022-11-06T09:08:13;21.03;;;9.00;;
22030;SDS011;11179;52.106;21.024;2022-11-06T09:10:42;34.80;;;10.70;;
22030;SDS011;11179;52.106;21.024;2022-11-06T09:13:08;28.87;;;10.63;;
22030;SDS011;11179;52.106;21.024;2022-11-06T09:15:34;28.10;;;9.63;;
22030;SDS011;11179;52.106;21.024;2022-11-06T09:18:00;19.23;;;8.40;;
22030;SDS011;11179;52.106;21.024;2022-11-06T09:20:25;22.27;;;9.17;;
22030;SDS011;11179;52.106;21.024;2022-11-06T09:22:51;21.90;;;9.10;;
22030;SDS011;11179;52.106;21.024;2022-11-06T09:25:17;21.33;;;9.97;;
22030;SDS011;11179;52.106;21.024;2022-11-06T09:27:46;26.80;;;9.33;;
22030;SDS011;11179;52.106;21.024;2022-11-06T09:30:15;24.37;;;10.23;;
22030;SDS011;11179;52.106;21.024;2022-11-06T09:32:49;22.37;;;9.50;;
22030;SDS011;11179;52.106;21.024;2022-11-06T09:35:19;40.63;;;11.03;;
22030;SDS011;11179;52.106;21.024;2022-11-06T09:37:45;25.00;;;10.10;;
22030;SDS011;11179;52.106;21.024;2022-11-06T09:42:54;19.03;;;9.50;;
22030;SDS011;11179;52.106;21.024;2022-11-06T09:45:27;25.47;;;9.37;;
22030;SDS011;11179;52.106;21.024;2022-11-06T09:48:03;20.43;;;9.90;;
22030;SDS011;11179;52.106;21.024;2022-11-06T09:50:37;23.03;;;11.20;;
22030;SDS011;11179;52.106;21.024;2022-11-06T09:55:46;28.17;;;10.00;;
22030;SDS011;11179;52.106;21.024;2022-11-06T09:58:17;21.87;;;10.20;;
22030;SDS011;11179;52.106;21.024;2022-11-06T10:00:48;20.83;;;10.10;;
22030;SDS011;11179;52.106;21.024;2022-11-06T10:03:18;19.03;;;10.30;;
22030;SDS011;11179;52.106;21.024;2022-11-06T10:05:51;21.60;;;10.17;;
22030;SDS011;11179;52.106;21.024;2022-11-06T10:08:35;20.00;;;11.17;;
22030;SDS011;11179;52.106;21.024;2022-11-06T10:11:03;25.10;;;10.77;;
22030;SDS011;11179;52.106;21.024;2022-11-06T10:14:06;21.10;;;10.57;;
22030;SDS011;11179;52.106;21.024;2022-11-06T10:16:44;22.37;;;11.63;;
22030;SDS011;11179;52.106;21.024;2022-11-06T10:19:30;25.03;;;12.93;;
22030;SDS011;11179;52.106;21.024;2022-11-06T10:24:45;21.50;;;11.40;;
22030;SDS011;11179;52.106;21.024;2022-11-06T10:27:55;21.13;;;9.83;;
22030;SDS011;11179;52.106;21.024;2022-11-06T10:30:14;25.03;;;10.30;;
22030;SDS011;11179;52.106;21.024;2022-11-06T10:35:35;22.97;;;11.77;;
22030;SDS011;11179;52.106;21.024;2022-11-06T10:38:13;22.40;;;12.20;;
22030;SDS011;11179;52.106;21.024;2022-11-06T10:40:45;22.50;;;11.73;;
22030;SDS011;11179;52.106;21.024;2022-11-06T10:45:58;23.20;;;12.67;;
22030;SDS011;11179;52.106;21.024;2022-11-06T10:48:38;20.33;;;10.37;;
22030;SDS011;11179;52.106;21.024;2022-11-06T10:51:20;20.90;;;9.97;;
22030;SDS011;11179;52.106;21.024;2022-11-06T10:56:58;18.83;;;9.30;;
22030;SDS011;11179;52.106;21.024;2022-11-06T10:59:46;21.20;;;10.73;;
22030;SDS011;11179;52.106;21.024;2022-11-06T11:02:32;22.23;;;10.50;;
22030;SDS011;11179;52.106;21.024;2022-11-06T11:05:00;24.90;;;10.90;;
22030;SDS011;11179;52.106;21.024;2022-11-06T11:07:29;23.37;;;10.43;;
22030;SDS011;11179;52.106;21.024;2022-11-06T11:09:58;18.70;;;10.77;;
22030;SDS011;11179;52.106;21.024;2022-11-06T11:12:27;22.03;;;10.13;;
22030;SDS011;11179;52.106;21.024;2022-11-06T11:15:13;19.20;;;9.57;;
22030;SDS011;11179;52.106;21.024;2022-11-06T11:17:42;19.93;;;8.73;;
22030;SDS011;11179;52.106;21.024;2022-11-06T11:20:31;25.03;;;10.40;;
22030;SDS011;11179;52.106;21.024;2022-11-06T11:25:43;19.90;;;11.40;;
22030;SDS011;11179;52.106;21.024;2022-11-06T11:28:35;33.30;;;16.20;;
22030;SDS011;11179;52.106;21.024;2022-11-06T11:33:32;20.77;;;9.67;;
22030;SDS011;11179;52.106;21.024;2022-11-06T11:35:58;16.83;;;9.47;;
22030;SDS011;11179;52.106;21.024;2022-11-06T11:38:23;19.00;;;10.00;;
22030;SDS011;11179;52.106;21.024;2022-11-06T11:40:50;19.27;;;9.30;;
22030;SDS011;11179;52.106;21.024;2022-11-06T11:43:37;17.90;;;8.50;;
22030;SDS011;11179;52.106;21.024;2022-11-06T11:53:54;20.00;;;10.00;;
22030;SDS011;11179;52.106;21.024;2022-11-06T11:56:23;20.93;;;8.70;;
22030;SDS011;11179;52.106;21.024;2022-11-06T11:58:51;15.37;;;8.07;;
22030;SDS011;11179;52.106;21.024;2022-11-06T12:01:19;17.30;;;9.20;;
22030;SDS011;11179;52.106;21.024;2022-11-06T12:04:00;16.93;;;8.60;;
22030;SDS011;11179;52.106;21.024;2022-11-06T12:06:31;19.90;;;9.43;;
22030;SDS011;11179;52.106;21.024;2022-11-06T12:08:57;15.80;;;8.90;;
22030;SDS011;11179;52.106;21.024;2022-11-06T12:11:24;20.50;;;8.63;;
22030;SDS011;11179;52.106;21.024;2022-11-06T12:16:52;25.57;;;8.27;;
22030;SDS011;11179;52.106;21.024;2022-11-06T12:19:26;23.70;;;8.23;;
22030;SDS011;11179;52.106;21.024;2022-11-06T12:21:55;19.73;;;8.47;;
22030;SDS011;11179;52.106;21.024;2022-11-06T12:24:26;15.10;;;6.90;;
22030;SDS011;11179;52.106;21.024;2022-11-06T12:27:06;15.53;;;7.50;;
22030;SDS011;11179;52.106;21.024;2022-11-06T12:29:41;39.77;;;11.17;;
22030;SDS011;11179;52.106;21.024;2022-11-06T12:35:04;20.37;;;8.53;;
22030;SDS011;11179;52.106;21.024;2022-11-06T12:40:40;17.53;;;8.40;;
22030;SDS011;11179;52.106;21.024;2022-11-06T12:45:49;19.20;;;7.17;;
22030;SDS011;11179;52.106;21.024;2022-11-06T12:48:48;18.13;;;7.37;;
22030;SDS011;11179;52.106;21.024;2022-11-06T12:51:45;12.23;;;5.57;;
22030;SDS011;11179;52.106;21.024;2022-11-06T12:59:20;19.30;;;5.70;;
22030;SDS011;11179;52.106;21.024;2022-11-06T13:02:16;10.30;;;4.90;;
22030;SDS011;11179;52.106;21.024;2022-11-06T13:18:59;16.83;;;4.93;;
22030;SDS011;11179;52.106;21.024;2022-11-06T13:27:39;13.90;;;5.67;;
22030;SDS011;11179;52.106;21.024;2022-11-06T13:32:56;16.13;;;7.53;;
22030;SDS011;11179;52.106;21.024;2022-11-06T13:35:22;9.40;;;4.50;;
22030;SDS011;11179;52.106;21.024;2022-11-06T13:37:48;15.93;;;6.20;;
22030;SDS011;11179;52.106;21.024;2022-11-06T13:40:20;16.27;;;6.47;;
22030;SDS011;11179;52.106;21.024;2022-11-06T13:42:52;14.57;;;7.20;;
22030;SDS011;11179;52.106;21.024;2022-11-06T13:45:21;19.63;;;7.47;;
22030;SDS011;11179;52.106;21.024;2022-11-06T13:50:35;15.60;;;7.80;;
22030;SDS011;11179;52.106;21.024;2022-11-06T13:53:30;19.27;;;6.83;;
22030;SDS011;11179;52.106;21.024;2022-11-06T13:59:07;18.63;;;8.23;;
22030;SDS011;11179;52.106;21.024;2022-11-06T14:04:48;19.30;;;8.47;;
22030;SDS011;11179;52.106;21.024;2022-11-06T14:07:16;22.37;;;10.47;;
22030;SDS011;11179;52.106;21.024;2022-11-06T14:09:44;20.87;;;8.50;;
22030;SDS011;11179;52.106;21.024;2022-11-06T14:12:16;19.20;;;8.70;;
22030;SDS011;11179;52.106;21.024;2022-11-06T14:14:47;16.83;;;8.90;;
22030;SDS011;11179;52.106;21.024;2022-11-06T14:24:40;19.33;;;9.67;;
22030;SDS011;11179;52.106;21.024;2022-11-06T14:34:45;33.20;;;11.20;;
22030;SDS011;11179;52.106;21.024;2022-11-06T14:50:31;20.00;;;10.30;;
22030;SDS011;11179;52.106;21.024;2022-11-06T14:53:05;35.37;;;15.57;;
22030;SDS011;11179;52.106;21.024;2022-11-06T14:58:38;64.13;;;25.70;;
22030;SDS011;11179;52.106;21.024;2022-11-06T15:01:14;56.60;;;25.00;;
22030;SDS011;11179;52.106;21.024;2022-11-06T15:03:49;53.80;;;26.27;;
22030;SDS011;11179;52.106;21.024;2022-11-06T15:16:26;58.93;;;24.90;;
22030;SDS011;11179;52.106;21.024;2022-11-06T15:19:05;56.37;;;25.43;;
22030;SDS011;11179;52.106;21.024;2022-11-06T15:21:45;88.77;;;38.40;;
22030;SDS011;11179;52.106;21.024;2022-11-06T15:24:14;79.73;;;33.20;;
22030;SDS011;11179;52.106;21.024;2022-11-06T15:26:50;100.43;;;41.90;;
22030;SDS011;11179;52.106;21.024;2022-11-06T15:29:25;55.57;;;22.67;;
22030;SDS011;11179;52.106;21.024;2022-11-06T15:32:01;47.00;;;20.67;;
22030;SDS011;11179;52.106;21.024;2022-11-06T15:34:37;41.23;;;19.43;;
22030;SDS011;11179;52.106;21.024;2022-11-06T15:37:12;43.30;;;19.53;;
22030;SDS011;11179;52.106;21.024;2022-11-06T15:40:02;49.27;;;23.03;;
22030;SDS011;11179;52.106;21.024;2022-11-06T15:42:29;44.23;;;22.10;;
22030;SDS011;11179;52.106;21.024;2022-11-06T15:47:39;43.23;;;21.53;;
22030;SDS011;11179;52.106;21.024;2022-11-06T15:52:45;40.03;;;19.73;;
22030;SDS011;11179;52.106;21.024;2022-11-06T15:55:15;45.30;;;22.80;;
22030;SDS011;11179;52.106;21.024;2022-11-06T15:57:51;45.93;;;24.80;;
22030;SDS011;11179;52.106;21.024;2022-11-06T16:00:22;46.83;;;24.37;;
22030;SDS011;11179;52.106;21.024;2022-11-06T16:05:20;57.63;;;31.83;;
22030;SDS011;11179;52.106;21.024;2022-11-06T16:07:46;69.17;;;31.60;;
22030;SDS011;11179;52.106;21.024;2022-11-06T16:10:16;64.53;;;36.50;;
22030;SDS011;11179;52.106;21.024;2022-11-06T16:12:45;71.53;;;39.20;;
22030;SDS011;11179;52.106;21.024;2022-11-06T16:21:14;127.13;;;51.00;;
22030;SDS011;11179;52.106;21.024;2022-11-06T16:23:56;81.13;;;39.50;;
22030;SDS011;11179;52.106;21.024;2022-11-06T16:28:56;79.03;;;37.10;;
22030;SDS011;11179;52.106;21.024;2022-11-06T16:31:28;66.47;;;33.53;;
22030;SDS011;11179;52.106;21.024;2022-11-06T16:33:55;72.93;;;35.20;;
22030;SDS011;11179;52.106;21.024;2022-11-06T16:36:47;74.10;;;35.70;;
22030;SDS011;11179;52.106;21.024;2022-11-06T16:41:58;81.73;;;40.67;;
22030;SDS011;11179;52.106;21.024;2022-11-06T16:44:44;81.20;;;39.17;;
22030;SDS011;11179;52.106;21.024;2022-11-06T16:49:48;100.43;;;47.03;;
22030;SDS011;11179;52.106;21.024;2022-11-06T16:54:55;97.20;;;45.93;;
22030;SDS011;11179;52.106;21.024;2022-11-06T16:57:28;101.17;;;46.90;;
22030;SDS011;11179;52.106;21.024;2022-11-06T17:00:20;88.57;;;42.60;;
22030;SDS011;11179;52.106;21.024;2022-11-06T17:02:49;99.20;;;42.30;;
22030;SDS011;11179;52.106;21.024;2022-11-06T17:05:17;96.20;;;44.50;;
22030;SDS011;11179;52.106;21.024;2022-11-06T17:07:48;89.73;;;43.60;;
22030;SDS011;11179;52.106;21.024;2022-11-06T17:12:58;99.57;;;48.07;;
22030;SDS011;11179;52.106;21.024;2022-11-06T17:15:26;89.10;;;45.97;;
22030;SDS011;11179;52.106;21.024;2022-11-06T17:17:51;89.93;;;45.93;;
22030;SDS011;11179;52.106;21.024;2022-11-06T17:20:17;93.83;;;46.30;;
22030;SDS011;11179;52.106;21.024;2022-11-06T17:22:43;99.18;;;47.92;;
22030;SDS011;11179;52.106;21.024;2022-11-06T17:25:10;94.67;;;48.30;;
22030;SDS011;11179;52.106;21.024;2022-11-06T17:27:35;92.20;;;45.27;;
22030;SDS011;11179;52.106;21.024;2022-11-06T17:30:00;89.93;;;44.10;;